Time;durP1;ratioP1;P1;durP2;ratioP2;P2;SDS_P1;SDS_P2;PMS_P1;PMS_P2;Temp;Humidity;BMP_temperature;BMP_pressure;BME280_temperature;BME280_humidity;BME280_pressure;Samples;Min_cycle;Max_cycle;Signal;HPM_P1;HPM_P2
2022/12/06 00:01:09;;;;;;;9.45;2.90;;;6.10;99.90;;;;;;5035365;28;20071;-73
2022/12/06 00:03:36;;;;;;;8.57;3.15;;;6.10;99.90;;;;;;5052564;28;20487;-73
2022/12/06 00:06:08;;;;;;;8.90;2.50;;;6.10;99.90;;;;;;5034913;28;20044;-73
2022/12/06 00:08:35;;;;;;;10.52;3.03;;;6.10;99.90;;;;;;5051623;28;20446;-73
2022/12/06 00:11:07;;;;;;;8.15;2.67;;;6.10;99.90;;;;;;5018896;28;20057;-73
2022/12/06 00:13:34;;;;;;;5.93;2.60;;;6.00;99.90;;;;;;5034237;28;20468;-73
2022/12/06 00:16:02;;;;;;;8.32;2.47;;;6.00;99.90;;;;;;5051748;28;20048;-73
2022/12/06 00:18:29;;;;;;;7.05;2.40;;;6.00;99.90;;;;;;5051468;28;20041;-74
2022/12/06 00:20:55;;;;;;;6.10;2.75;;;6.00;99.90;;;;;;5051340;28;20128;-74
2022/12/06 00:23:22;;;;;;;13.95;2.70;;;6.00;99.90;;;;;;5035123;28;20052;-73
2022/12/06 00:25:48;;;;;;;6.05;2.40;;;6.00;99.90;;;;;;5018405;28;20049;-73
2022/12/06 00:28:14;;;;;;;8.50;2.58;;;5.90;99.90;;;;;;5035000;28;20392;-73
2022/12/06 00:30:40;;;;;;;7.07;2.50;;;5.90;99.90;;;;;;5034992;28;20087;-73
2022/12/06 00:33:06;;;;;;;8.50;2.58;;;5.90;99.90;;;;;;5034965;28;20465;-73
2022/12/06 00:35:32;;;;;;;8.20;2.50;;;5.80;99.90;;;;;;5051613;28;20053;-73
2022/12/06 00:37:58;;;;;;;10.45;2.60;;;5.80;99.90;;;;;;5018310;28;20056;-73
2022/12/06 00:40:24;;;;;;;8.65;3.25;;;5.80;99.90;;;;;;5018168;28;20045;-74
2022/12/06 00:42:50;;;;;;;6.88;2.40;;;5.80;99.90;;;;;;5034628;28;20505;-73
2022/12/06 00:45:16;;;;;;;7.93;2.38;;;5.80;99.90;;;;;;5034600;28;20410;-74
2022/12/06 00:47:42;;;;;;;8.27;2.35;;;6.10;99.90;;;;;;5034742;28;20136;-74
2022/12/06 00:50:08;;;;;;;6.28;2.30;;;5.80;99.90;;;;;;5034817;28;20045;-74
2022/12/06 00:52:34;;;;;;;9.73;2.50;;;5.80;99.90;;;;;;5018401;28;20067;-73
2022/12/06 00:55:00;;;;;;;7.43;2.30;;;5.80;99.90;;;;;;5034324;28;20131;-74
2022/12/06 00:57:26;;;;;;;6.70;2.47;;;5.80;99.90;;;;;;5002201;28;20037;-74
2022/12/06 00:59:52;;;;;;;7.15;2.30;;;5.90;99.90;;;;;;5033901;28;20061;-74
2022/12/06 01:02:19;;;;;;;5.95;2.00;;;5.90;99.90;;;;;;5034785;28;20052;-74
2022/12/06 01:04:46;;;;;;;8.77;2.42;;;5.90;99.90;;;;;;5051084;28;20041;-74
2022/12/06 01:07:12;;;;;;;7.13;2.20;;;5.90;99.90;;;;;;5034655;28;20056;-74
2022/12/06 01:09:38;;;;;;;5.85;2.15;;;5.90;99.90;;;;;;5034730;28;20525;-74
2022/12/06 01:12:04;;;;;;;6.38;1.95;;;5.90;99.90;;;;;;5050733;28;20418;-74
2022/12/06 01:14:30;;;;;;;7.00;2.08;;;5.90;99.90;;;;;;5034651;28;20107;-74
2022/12/06 01:16:56;;;;;;;2.58;1.83;;;5.90;99.90;;;;;;5034300;28;20406;-72
2022/12/06 01:19:22;;;;;;;7.35;2.13;;;5.90;99.90;;;;;;5034241;28;20136;-73
2022/12/06 01:21:48;;;;;;;7.93;2.25;;;5.90;99.90;;;;;;5018026;28;20139;-74
2022/12/06 01:24:14;;;;;;;5.88;2.40;;;5.90;99.90;;;;;;5051887;28;20103;-74
2022/12/06 01:26:40;;;;;;;6.82;2.03;;;5.90;99.90;;;;;;5038105;28;20045;-74
2022/12/06 01:29:06;;;;;;;6.97;2.20;;;6.50;99.90;;;;;;5054373;28;20044;-74
2022/12/06 01:31:32;;;;;;;5.32;2.03;;;5.90;99.90;;;;;;5054538;28;20497;-75
2022/12/06 01:33:58;;;;;;;3.97;1.83;;;5.90;99.90;;;;;;5037825;28;20048;-72
2022/12/06 01:36:25;;;;;;;4.00;2.08;;;5.90;99.90;;;;;;5037876;28;20045;-72
2022/12/06 01:39:05;;;;;;;7.80;2.30;;;5.90;99.90;;;;;;5037430;28;20094;-73
2022/12/06 01:41:31;;;;;;;7.90;2.30;;;5.90;99.90;;;;;;5054407;28;20478;-72
2022/12/06 01:43:57;;;;;;;8.45;2.80;;;5.90;99.90;;;;;;5054094;28;20049;-73
2022/12/06 01:46:37;;;;;;;11.13;4.45;;;5.90;99.90;;;;;;5037764;28;20052;-72
2022/12/06 01:49:17;;;;;;;11.77;5.25;;;5.90;99.90;;;;;;5054126;28;20041;-74
2022/12/06 01:51:53;;;;;;;16.40;7.63;;;5.90;99.90;;;;;;5037757;28;20087;-74
2022/12/06 01:54:20;;;;;;;18.60;9.00;;;5.90;99.90;;;;;;5037672;28;20087;-74
2022/12/06 01:56:47;;;;;;;17.23;7.22;;;5.90;99.90;;;;;;5037475;28;20048;-76
2022/12/06 01:59:15;;;;;;;13.52;6.15;;;5.90;99.90;;;;;;5036822;28;20507;-74
2022/12/06 02:01:41;;;;;;;8.02;4.25;;;5.90;99.90;;;;;;5053968;28;20071;-75
2022/12/06 02:04:07;;;;;;;6.85;3.45;;;5.90;99.90;;;;;;5037084;28;20053;-75
2022/12/06 02:06:33;;;;;;;5.95;2.72;;;5.90;99.90;;;;;;5053812;28;20049;-75
2022/12/06 02:09:03;;;;;;;5.65;2.08;;;5.90;99.90;;;;;;5036814;28;20570;-74
2022/12/06 02:11:29;;;;;;;8.68;2.30;;;5.90;99.90;;;;;;5053734;28;20119;-74
2022/12/06 02:13:55;;;;;;;5.32;2.33;;;5.90;99.90;;;;;;5036490;28;20392;-75
2022/12/06 02:16:36;;;;;;;6.93;2.15;;;5.80;99.90;;;;;;5037063;28;20128;-74
2022/12/06 02:19:40;;;;;;;4.97;1.77;;;5.80;99.90;;;;;;5036678;28;20047;-74
2022/12/06 02:22:28;;;;;;;4.13;1.70;;;5.80;99.90;;;;;;5036473;28;20056;-73
2022/12/06 02:25:22;;;;;;;6.50;2.10;;;5.80;99.90;;;;;;5036529;28;20049;-74
2022/12/06 02:28:07;;;;;;;5.30;2.65;;;5.90;99.90;;;;;;5053230;28;20055;-75
2022/12/06 02:30:48;;;;;;;10.02;3.35;;;5.80;99.90;;;;;;5036504;28;20049;-74
2022/12/06 02:33:42;;;;;;;9.00;3.88;;;5.70;99.90;;;;;;5036400;28;20045;-73
2022/12/06 02:36:17;;;;;;;15.57;4.70;;;5.70;99.90;;;;;;5041468;28;20053;-73
2022/12/06 02:38:58;;;;;;;7.63;3.80;;;5.70;99.90;;;;;;5036243;28;20041;-73
2022/12/06 02:41:37;;;;;;;8.27;3.50;;;5.60;99.90;;;;;;5053025;28;20084;-73
2022/12/06 02:44:07;;;;;;;8.77;3.00;;;5.60;99.90;;;;;;5036080;28;20049;-73
2022/12/06 02:46:37;;;;;;;6.75;2.75;;;6.30;99.90;;;;;;5052840;28;20088;-74
2022/12/06 02:49:05;;;;;;;7.70;2.78;;;5.60;99.90;;;;;;5035977;28;20049;-73
2022/12/06 02:51:33;;;;;;;6.60;2.42;;;5.60;99.90;;;;;;5052443;28;20052;-74
2022/12/06 02:54:04;;;;;;;6.40;2.08;;;5.60;99.90;;;;;;5035198;28;20491;-74
2022/12/06 02:56:31;;;;;;;3.78;1.88;;;5.60;99.90;;;;;;5036085;28;20053;-74
2022/12/06 02:58:58;;;;;;;4.80;1.70;;;5.50;99.90;;;;;;5051802;28;20056;-74
2022/12/06 03:01:28;;;;;;;7.38;1.83;;;5.50;99.90;;;;;;5035993;28;20045;-74
2022/12/06 03:04:17;;;;;;;5.32;1.80;;;5.50;99.90;;;;;;5035828;28;20049;-74
2022/12/06 03:07:13;;;;;;;5.45;1.90;;;5.50;99.90;;;;;;5035606;28;20551;-74
2022/12/06 03:10:01;;;;;;;4.13;1.48;;;5.50;99.90;;;;;;5052423;28;20395;-74
2022/12/06 03:12:29;;;;;;;4.72;1.80;;;5.50;99.90;;;;;;5052319;28;20041;-75
2022/12/06 03:15:15;;;;;;;6.78;1.90;;;5.40;99.90;;;;;;5035742;28;20139;-74
2022/12/06 03:17:58;;;;;;;5.53;1.63;;;5.40;99.90;;;;;;5035676;28;20059;-74
2022/12/06 03:20:31;;;;;;;5.03;1.77;;;5.40;99.90;;;;;;5035174;28;20048;-73
2022/12/06 03:23:05;;;;;;;5.03;2.00;;;5.40;99.90;;;;;;5052420;28;20064;-73
2022/12/06 03:25:34;;;;;;;4.85;1.60;;;5.50;99.90;;;;;;5051963;28;20103;-74
2022/12/06 03:28:02;;;;;;;5.22;1.98;;;5.50;99.90;;;;;;5035457;28;20182;-73
2022/12/06 03:30:31;;;;;;;4.20;1.90;;;5.50;99.90;;;;;;5035050;28;20387;-73
2022/12/06 03:32:58;;;;;;;5.68;2.00;;;5.40;99.90;;;;;;5035393;28;20121;-74
2022/12/06 03:35:30;;;;;;;3.17;1.55;;;5.60;99.90;;;;;;5035178;28;20493;-74
2022/12/06 03:38:05;;;;;;;4.38;2.03;;;5.50;99.90;;;;;;5052016;28;20106;-74
2022/12/06 03:40:35;;;;;;;5.00;1.90;;;5.50;99.90;;;;;;5034998;28;20059;-74
2022/12/06 03:43:02;;;;;;;6.07;1.85;;;5.50;99.90;;;;;;5051894;28;20049;-73
2022/12/06 03:45:36;;;;;;;4.10;1.50;;;5.50;99.90;;;;;;5035141;28;20056;-74
2022/12/06 03:48:37;;;;;;;6.07;1.80;;;6.00;99.90;;;;;;5034529;28;20052;-74
2022/12/06 03:51:22;;;;;;;3.17;1.80;;;5.60;99.90;;;;;;5048388;28;20045;-74
2022/12/06 03:53:55;;;;;;;5.20;1.90;;;5.50;99.90;;;;;;5035189;28;20060;-74
2022/12/06 03:56:22;;;;;;;9.30;2.10;;;5.60;99.90;;;;;;5034640;28;20507;-73
2022/12/06 03:58:48;;;;;;;4.13;2.10;;;5.60;99.90;;;;;;5034792;28;20118;-73
2022/12/06 04:01:15;;;;;;;4.03;2.10;;;5.60;99.90;;;;;;5034772;28;20056;-74
2022/12/06 04:03:40;;;;;;;4.35;1.90;;;5.60;99.90;;;;;;5018458;28;20045;-74
2022/12/06 04:06:08;;;;;;;4.60;2.10;;;5.60;99.90;;;;;;5018419;28;20053;-73
2022/12/06 04:08:34;;;;;;;3.88;1.55;;;5.60;99.90;;;;;;5051224;28;20049;-74
2022/12/06 04:11:00;;;;;;;3.40;1.55;;;5.60;99.90;;;;;;5034795;28;20494;-74
2022/12/06 04:13:27;;;;;;;3.88;1.30;;;5.60;99.90;;;;;;5051272;28;20106;-74
2022/12/06 04:15:58;;;;;;;3.15;1.20;;;5.60;99.90;;;;;;5034757;28;20049;-73
2022/12/06 04:18:24;;;;;;;5.03;1.50;;;5.60;99.90;;;;;;5034282;28;20080;-73
2022/12/06 04:23:50;;;;;;;2.35;1.05;;;5.50;99.90;;;;;;5051349;28;20144;-73
2022/12/06 04:26:22;;;;;;;1.25;0.80;;;5.50;99.90;;;;;;5051019;28;20085;-74
2022/12/06 04:39:47;;;;;;;2.83;1.15;;;5.50;99.90;;;;;;5045414;28;20518;-75
2022/12/06 04:44:57;;;;;;;3.00;0.88;;;5.50;99.90;;;;;;5048901;28;20061;-75
2022/12/06 04:47:23;;;;;;;3.25;1.10;;;5.50;99.90;;;;;;5048348;28;20453;-75
2022/12/06 04:49:49;;;;;;;2.50;0.82;;;5.60;99.90;;;;;;5031867;28;20049;-77
2022/12/06 04:52:15;;;;;;;2.17;0.88;;;5.50;99.90;;;;;;5015763;28;20075;-77
2022/12/06 04:54:42;;;;;;;1.90;0.90;;;6.20;99.90;;;;;;5048813;28;20087;-76
2022/12/06 04:57:11;;;;;;;1.42;0.80;;;5.60;99.90;;;;;;5048869;28;20045;-76
2022/12/06 04:59:39;;;;;;;2.00;0.80;;;5.50;99.90;;;;;;5042552;28;20068;-76
2022/12/06 05:02:06;;;;;;;1.88;0.90;;;5.50;99.90;;;;;;5052398;28;20124;-77
2022/12/06 05:04:32;;;;;;;2.70;0.95;;;5.60;99.90;;;;;;5052373;28;20150;-77
2022/12/06 05:06:59;;;;;;;2.40;0.80;;;5.60;99.90;;;;;;5052543;28;20053;-76
2022/12/06 05:09:24;;;;;;;1.27;0.80;;;5.50;99.90;;;;;;5051939;28;20127;-76
2022/12/06 05:11:50;;;;;;;2.55;1.10;;;5.60;99.90;;;;;;5035396;28;20128;-78
2022/12/06 05:14:16;;;;;;;4.72;1.10;;;5.60;99.90;;;;;;5035566;28;20470;-79
2022/12/06 05:16:45;;;;;;;1.98;0.90;;;5.60;99.90;;;;;;5052006;28;20052;-77
2022/12/06 05:19:12;;;;;;;2.75;1.23;;;5.60;99.90;;;;;;5035597;28;20048;-77
2022/12/06 05:21:38;;;;;;;3.03;0.93;;;5.60;99.90;;;;;;5052073;28;20108;-75
2022/12/06 05:24:04;;;;;;;3.30;1.20;;;5.60;99.90;;;;;;5051406;28;20114;-76
2022/12/06 05:26:30;;;;;;;4.45;1.00;;;5.60;99.90;;;;;;5035366;28;20052;-77
2022/12/06 05:28:56;;;;;;;3.83;1.05;;;5.60;99.90;;;;;;5051851;28;20045;-77
2022/12/06 05:31:24;;;;;;;3.13;1.30;;;5.60;99.90;;;;;;5051953;28;20052;-76
2022/12/06 05:33:50;;;;;;;1.55;1.00;;;5.60;99.90;;;;;;5051953;28;20045;-76
2022/12/06 05:36:22;;;;;;;2.30;1.10;;;5.60;99.90;;;;;;5051272;28;20076;-76
2022/12/06 05:38:49;;;;;;;3.92;1.20;;;5.60;99.90;;;;;;5051812;28;20048;-77
2022/12/06 05:41:17;;;;;;;5.80;1.20;;;5.60;99.90;;;;;;5051705;28;20091;-76
2022/12/06 05:43:43;;;;;;;1.80;1.00;;;5.50;99.90;;;;;;5051679;28;20159;-76
2022/12/06 05:46:09;;;;;;;1.55;0.95;;;5.50;99.90;;;;;;5035266;28;20526;-77
2022/12/06 05:48:35;;;;;;;2.05;0.88;;;5.50;99.90;;;;;;5051069;28;20461;-76
2022/12/06 05:51:01;;;;;;;4.80;1.20;;;5.50;99.90;;;;;;5035236;28;20052;-77
2022/12/06 05:53:27;;;;;;;3.58;1.10;;;5.50;99.90;;;;;;5018333;28;20084;-75
2022/12/06 05:55:53;;;;;;;2.75;1.05;;;5.50;99.90;;;;;;5053579;28;20084;-75
2022/12/06 05:58:19;;;;;;;3.42;1.20;;;5.50;99.90;;;;;;5055929;28;20049;-76
2022/12/06 06:00:47;;;;;;;1.63;1.00;;;5.50;99.90;;;;;;5076994;28;20062;-75
2022/12/06 06:03:14;;;;;;;3.47;1.10;;;5.40;99.90;;;;;;5077041;28;20482;-76
2022/12/06 06:05:48;;;;;;;1.88;1.13;;;5.40;99.90;;;;;;5076810;28;20055;-76
2022/12/06 06:08:15;;;;;;;2.53;1.20;;;5.30;99.90;;;;;;5044155;28;20048;-76
2022/12/06 06:10:41;;;;;;;4.05;1.20;;;5.20;99.90;;;;;;5076075;28;20436;-76
2022/12/06 06:13:07;;;;;;;4.45;1.30;;;5.20;99.90;;;;;;5076782;28;20048;-76
2022/12/06 06:15:33;;;;;;;3.15;1.25;;;5.10;99.90;;;;;;5043472;28;20052;-76
2022/12/06 06:17:59;;;;;;;2.53;1.15;;;5.00;99.90;;;;;;5076909;28;20086;-76
2022/12/06 06:20:25;;;;;;;3.38;1.40;;;4.90;99.90;;;;;;5076029;28;20051;-81
2022/12/06 06:22:53;;;;;;;4.18;1.40;;;4.90;99.90;;;;;;5043288;28;20044;-76
2022/12/06 06:25:19;;;;;;;2.92;1.70;;;4.80;99.90;;;;;;5059938;28;20486;-76
2022/12/06 06:27:45;;;;;;;4.25;2.08;;;4.80;99.90;;;;;;5076394;28;20066;-76
2022/12/06 06:30:12;;;;;;;4.57;1.60;;;4.80;99.90;;;;;;5094430;28;20253;-76
2022/12/06 06:32:38;;;;;;;3.78;1.85;;;4.80;99.90;;;;;;5076279;28;20056;-76
2022/12/06 06:35:05;;;;;;;5.10;1.52;;;4.80;99.90;;;;;;5076083;28;20446;-76
2022/12/06 06:37:31;;;;;;;4.57;2.03;;;4.70;99.90;;;;;;5075877;28;20048;-75
2022/12/06 06:39:58;;;;;;;6.28;2.25;;;4.70;99.90;;;;;;5076044;28;20051;-76
2022/12/06 06:42:24;;;;;;;5.00;2.08;;;4.80;99.90;;;;;;5059615;28;20047;-76
2022/12/06 06:44:53;;;;;;;4.68;2.63;;;4.80;99.90;;;;;;5076087;28;20054;-76
2022/12/06 06:47:19;;;;;;;6.10;2.47;;;4.80;99.90;;;;;;5059550;28;20504;-76
2022/12/06 06:49:45;;;;;;;5.57;2.60;;;4.80;99.90;;;;;;5075959;28;20052;-76
2022/12/06 06:52:11;;;;;;;5.05;2.55;;;5.40;99.90;;;;;;5042784;28;20093;-76
2022/12/06 06:54:37;;;;;;;6.75;2.65;;;4.80;99.90;;;;;;5059174;28;20116;-76
2022/12/06 06:57:03;;;;;;;7.60;2.88;;;4.80;99.90;;;;;;5076024;28;20130;-76
2022/12/06 06:59:29;;;;;;;6.47;2.53;;;4.80;99.90;;;;;;5055403;28;20057;-76
2022/12/06 07:01:55;;;;;;;7.35;2.60;;;4.80;99.90;;;;;;5072292;28;20044;-76
2022/12/06 07:04:21;;;;;;;8.38;3.13;;;4.80;99.90;;;;;;5072379;28;20048;-76
2022/12/06 07:06:47;;;;;;;6.97;2.70;;;4.80;99.90;;;;;;5072299;28;20051;-76
2022/12/06 07:09:13;;;;;;;7.90;2.85;;;4.80;99.90;;;;;;5072515;28;20044;-76
2022/12/06 07:11:39;;;;;;;7.38;2.67;;;4.80;99.90;;;;;;5071871;28;20052;-76
2022/12/06 07:14:05;;;;;;;4.25;2.60;;;4.70;99.90;;;;;;5055696;28;20242;-76
2022/12/06 07:16:31;;;;;;;6.45;2.50;;;4.60;99.90;;;;;;5071739;28;20084;-77
2022/12/06 07:18:56;;;;;;;5.70;2.85;;;4.50;99.90;;;;;;5054598;28;20045;-76
2022/12/06 07:21:22;;;;;;;5.47;2.70;;;4.40;99.90;;;;;;5037650;28;20060;-76
2022/12/06 07:23:49;;;;;;;6.38;2.70;;;4.30;99.90;;;;;;5037456;28;20059;-76
2022/12/06 07:26:21;;;;;;;6.28;2.80;;;4.20;99.90;;;;;;5054719;28;20178;-76
2022/12/06 07:28:48;;;;;;;6.40;2.95;;;4.20;99.90;;;;;;5054817;28;20055;-76
2022/12/06 07:31:18;;;;;;;8.18;2.45;;;4.10;99.90;;;;;;5038835;28;20055;-76
2022/12/06 07:33:45;;;;;;;6.70;2.58;;;4.00;99.90;;;;;;5071968;28;20052;-76
2022/12/06 07:36:12;;;;;;;7.07;2.70;;;3.90;99.90;;;;;;5055491;28;20071;-76
2022/12/06 07:38:38;;;;;;;8.50;2.63;;;3.80;99.90;;;;;;5071719;28;20407;-77
2022/12/06 07:46:41;;;;;;;7.68;3.00;;;3.60;99.90;;;;;;5071747;28;20049;-76
2022/12/06 07:49:08;;;;;;;4.63;2.60;;;3.50;99.90;;;;;;5038686;28;20620;-76
2022/12/06 07:51:34;;;;;;;5.78;2.58;;;3.50;99.90;;;;;;5055251;28;20170;-76
2022/12/06 07:54:00;;;;;;;6.57;2.72;;;3.40;99.90;;;;;;5054817;28;20067;-76
2022/12/06 07:56:26;;;;;;;7.25;2.78;;;3.40;99.90;;;;;;5054977;28;20048;-76
2022/12/06 07:58:52;;;;;;;7.18;3.00;;;3.30;99.90;;;;;;5071182;28;20052;-76
2022/12/06 08:01:18;;;;;;;6.03;3.15;;;4.00;99.90;;;;;;5071593;28;20517;-76
2022/12/06 08:03:44;;;;;;;7.40;2.80;;;3.30;99.90;;;;;;5071304;28;20076;-76
2022/12/06 08:06:11;;;;;;;8.07;3.20;;;3.30;99.90;;;;;;5038375;28;20044;-76
2022/12/06 08:08:37;;;;;;;8.93;3.13;;;3.20;99.90;;;;;;5054758;28;20049;-76
2022/12/06 08:11:06;;;;;;;8.32;3.15;;;3.20;99.90;;;;;;5054668;28;20075;-76
2022/12/06 08:13:33;;;;;;;6.82;2.60;;;3.10;99.90;;;;;;5088106;28;20048;-76
2022/12/06 08:15:59;;;;;;;8.52;2.80;;;3.10;99.90;;;;;;5054612;28;20052;-76
2022/12/06 08:18:25;;;;;;;5.75;2.65;;;3.20;99.90;;;;;;5071358;28;20048;-76
2022/12/06 08:20:52;;;;;;;6.15;3.05;;;3.20;99.90;;;;;;5054553;28;20131;-75
2022/12/06 08:23:18;;;;;;;6.35;3.30;;;3.30;99.90;;;;;;5071498;28;20055;-75
2022/12/06 08:25:44;;;;;;;7.55;3.50;;;3.40;99.90;;;;;;5071167;28;20053;-79
2022/12/06 08:28:10;;;;;;;4.75;2.90;;;3.60;99.90;;;;;;5071317;28;20052;-77
2022/12/06 08:30:40;;;;;;;7.80;3.55;;;3.70;99.90;;;;;;5054766;28;20098;-77
2022/12/06 08:33:06;;;;;;;9.40;3.65;;;3.20;99.90;;;;;;5071679;28;20490;-77
2022/12/06 08:35:35;;;;;;;7.00;3.22;;;3.90;99.90;;;;;;5058791;28;20052;-77
2022/12/06 08:38:01;;;;;;;13.70;8.63;;;4.00;99.90;;;;;;5075171;28;20105;-77
2022/12/06 08:40:27;;;;;;;8.15;4.20;;;4.10;99.90;;;;;;5058361;28;20044;-76
2022/12/06 08:42:53;;;;;;;8.23;3.30;;;4.20;99.90;;;;;;5058352;28;20433;-76
2022/12/06 08:45:19;;;;;;;9.00;3.30;;;4.30;99.90;;;;;;5058587;28;20425;-77
2022/12/06 08:47:45;;;;;;;8.45;3.25;;;4.40;99.90;;;;;;5075119;28;20409;-77
2022/12/06 08:50:11;;;;;;;6.03;3.20;;;4.40;99.90;;;;;;5041718;28;20151;-77
2022/12/06 08:52:37;;;;;;;13.10;7.88;;;4.50;99.90;;;;;;5058541;28;20041;-76
2022/12/06 08:55:03;;;;;;;7.78;3.50;;;4.50;99.90;;;;;;5074719;28;20437;-76
2022/12/06 08:57:32;;;;;;;10.07;4.03;;;4.60;99.90;;;;;;5058309;28;20066;-76
2022/12/06 08:59:58;;;;;;;6.60;3.70;;;4.60;99.90;;;;;;5057405;28;20056;-76
2022/12/06 09:02:24;;;;;;;6.53;3.20;;;4.60;99.90;;;;;;5074980;28;20102;-76
2022/12/06 09:04:50;;;;;;;8.70;4.00;;;4.70;99.90;;;;;;5024979;28;20044;-79
2022/12/06 09:07:17;;;;;;;10.82;4.18;;;4.70;99.90;;;;;;5058006;28;20398;-76
2022/12/06 09:09:45;;;;;;;8.73;4.15;;;4.70;99.90;;;;;;5074768;28;20422;-76
2022/12/06 09:12:11;;;;;;;9.77;4.30;;;4.70;99.90;;;;;;5074592;28;20126;-74
2022/12/06 09:14:37;;;;;;;9.48;5.32;;;4.70;99.90;;;;;;5074339;28;20398;-74
2022/12/06 09:17:05;;;;;;;23.52;15.43;;;5.10;99.90;;;;;;5041110;28;20060;-75
2022/12/06 09:19:31;;;;;;;11.27;5.30;;;5.00;99.90;;;;;;5057832;28;20087;-75
2022/12/06 09:21:57;;;;;;;11.25;4.80;;;5.10;99.90;;;;;;5057680;28;20045;-75
2022/12/06 09:24:23;;;;;;;8.55;4.65;;;5.20;99.90;;;;;;5041292;28;20139;-76
2022/12/06 09:26:49;;;;;;;10.85;5.30;;;6.00;99.90;;;;;;5041333;28;20109;-75
2022/12/06 09:29:16;;;;;;;12.02;6.93;;;5.20;99.90;;;;;;5040990;28;20045;-75
2022/12/06 09:31:42;;;;;;;8.05;4.47;;;5.10;99.90;;;;;;5057803;28;20059;-76
2022/12/06 09:34:09;;;;;;;9.38;5.00;;;5.80;99.90;;;;;;5074245;28;20402;-76
2022/12/06 09:37:01;;;;;;;11.02;6.60;;;5.00;99.90;;;;;;5057601;28;20054;-76
2022/12/06 09:39:32;;;;;;;9.35;4.00;;;5.00;99.90;;;;;;5057189;28;20067;-76
2022/12/06 09:42:27;;;;;;;8.15;4.00;;;5.10;99.90;;;;;;5057457;28;20161;-76
2022/12/06 09:45:17;;;;;;;28.98;24.00;;;5.20;99.90;;;;;;5043111;28;20418;-75
2022/12/06 09:47:47;;;;;;;10.50;5.93;;;5.30;99.90;;;;;;5074223;28;20041;-76
2022/12/06 09:50:22;;;;;;;8.35;4.07;;;5.40;99.90;;;;;;5073811;28;20040;-76
2022/12/06 09:53:10;;;;;;;8.45;4.20;;;5.50;99.90;;;;;;5074132;28;20044;-76
2022/12/06 09:55:47;;;;;;;9.88;3.63;;;5.70;99.90;;;;;;5057357;28;20057;-77
2022/12/06 09:58:16;;;;;;;8.60;4.05;;;5.70;99.90;;;;;;5073758;28;20044;-77
2022/12/06 10:01:12;;;;;;;6.85;4.28;;;5.80;99.90;;;;;;5073020;28;20139;-75
2022/12/06 10:04:02;;;;;;;7.97;3.78;;;5.90;99.90;;;;;;5073823;28;20053;-76
2022/12/06 10:06:47;;;;;;;6.90;3.80;;;5.90;99.90;;;;;;5057136;28;20052;-76
2022/12/06 10:09:33;;;;;;;5.55;3.50;;;6.00;99.90;;;;;;5073510;28;20044;-76
2022/12/06 10:12:08;;;;;;;8.05;3.75;;;6.10;99.90;;;;;;5073646;28;20054;-76
2022/12/06 10:15:08;;;;;;;7.90;3.53;;;6.20;99.90;;;;;;5073784;28;20079;-76
2022/12/06 10:17:44;;;;;;;6.60;3.78;;;6.30;99.90;;;;;;5056896;28;20055;-76
2022/12/06 10:20:42;;;;;;;6.55;3.50;;;6.40;99.90;;;;;;5073077;28;20036;-76
2022/12/06 10:23:45;;;;;;;10.27;3.30;;;6.80;99.90;;;;;;5069296;28;20060;-76
2022/12/06 10:26:19;;;;;;;6.05;2.88;;;6.60;99.90;;;;;;5056508;28;20714;-76
2022/12/06 10:29:01;;;;;;;11.30;3.38;;;6.70;99.90;;;;;;5073370;28;20048;-76
2022/12/06 10:31:42;;;;;;;4.18;2.67;;;6.80;99.90;;;;;;5056815;28;20482;-76
2022/12/06 10:34:20;;;;;;;5.75;2.25;;;7.00;99.90;;;;;;5073166;28;20406;-77
2022/12/06 10:37:08;;;;;;;7.05;2.85;;;7.10;99.90;;;;;;5073280;28;20044;-77
2022/12/06 10:40:12;;;;;;;5.45;2.42;;;7.30;99.90;;;;;;5056613;28;20044;-76
2022/12/06 10:42:59;;;;;;;9.30;2.90;;;7.30;99.90;;;;;;5003191;28;20140;-76
2022/12/06 10:49:06;;;;;;;7.47;2.78;;;7.20;99.90;;;;;;5072957;28;20506;-76
2022/12/06 10:51:59;;;;;;;6.00;1.98;;;7.30;99.90;;;;;;5017809;28;20136;-76
2022/12/06 10:54:32;;;;;;;5.13;2.10;;;7.60;99.90;;;;;;5051580;28;20106;-77
2022/12/06 10:57:01;;;;;;;4.18;1.83;;;7.80;99.90;;;;;;5052452;28;20686;-76
2022/12/06 10:59:39;;;;;;;4.57;2.17;;;7.90;99.90;;;;;;5035491;28;20140;-76
2022/12/06 11:02:19;;;;;;;5.22;2.28;;;7.90;99.90;;;;;;5052647;28;20418;-78
2022/12/06 11:04:46;;;;;;;6.72;2.42;;;7.90;99.90;;;;;;5069289;28;20099;-77
2022/12/06 11:07:26;;;;;;;4.03;2.20;;;7.90;99.90;;;;;;5035741;28;20048;-77
2022/12/06 11:09:55;;;;;;;2.95;2.40;;;7.90;99.90;;;;;;5052297;28;20048;-76
2022/12/06 11:12:32;;;;;;;3.67;2.08;;;8.00;99.90;;;;;;5052318;28;20087;-75
2022/12/06 11:15:17;;;;;;;2.90;1.83;;;8.20;99.90;;;;;;5052172;28;20055;-75
2022/12/06 11:18:04;;;;;;;5.95;3.78;;;8.00;99.90;;;;;;5052292;28;20052;-75
2022/12/06 11:20:42;;;;;;;7.40;4.55;;;7.80;99.90;;;;;;5051878;28;20147;-75
2022/12/06 11:23:41;;;;;;;4.32;2.78;;;7.70;99.90;;;;;;5068957;28;20088;-76
2022/12/06 11:26:21;;;;;;;4.10;1.90;;;7.80;99.90;;;;;;5024293;28;20507;-76
2022/12/06 11:28:58;;;;;;;3.50;2.20;;;7.80;99.90;;;;;;5052025;28;20123;-75
2022/12/06 11:31:30;;;;;;;3.15;1.77;;;7.70;99.90;;;;;;5051978;28;20380;-76
2022/12/06 11:33:59;;;;;;;5.82;2.78;;;8.20;99.90;;;;;;5035537;28;20127;-76
2022/12/06 11:36:25;;;;;;;4.95;1.80;;;8.80;99.90;;;;;;5051859;28;20542;-76
2022/12/06 11:38:52;;;;;;;5.40;1.85;;;9.40;99.90;;;;;;5051915;28;20130;-77
2022/12/06 11:41:25;;;;;;;4.78;2.28;;;10.00;99.90;;;;;;5035171;28;20045;-76
2022/12/06 11:43:52;;;;;;;4.18;2.03;;;10.30;99.90;;;;;;5035468;28;20049;-77
2022/12/06 11:46:20;;;;;;;4.57;2.33;;;9.90;99.90;;;;;;5034962;28;20056;-76
2022/12/06 11:48:46;;;;;;;15.65;11.93;;;9.60;99.90;;;;;;5051848;28;20503;-77
2022/12/06 11:51:22;;;;;;;3.40;2.50;;;9.80;99.90;;;;;;5035004;28;20048;-80
2022/12/06 11:54:17;;;;;;;4.28;2.13;;;10.10;99.90;;;;;;5035360;28;20059;-77
2022/12/06 11:56:44;;;;;;;4.78;3.20;;;10.30;99.90;;;;;;5035345;28;20091;-77
2022/12/06 11:59:16;;;;;;;5.70;2.33;;;10.40;99.90;;;;;;5051300;28;20052;-77
2022/12/06 12:01:45;;;;;;;4.78;3.85;;;10.60;99.90;;;;;;5068367;28;20088;-77
2022/12/06 12:04:38;;;;;;;3.88;2.38;;;10.50;99.90;;;;;;5051711;28;20040;-76
2022/12/06 12:07:18;;;;;;;3.42;1.95;;;10.80;99.90;;;;;;5068411;28;20061;-76
2022/12/06 12:09:51;;;;;;;13.98;11.98;;;11.20;99.90;;;;;;5051213;28;20041;-77
2022/12/06 12:12:21;;;;;;;5.47;2.55;;;11.60;99.90;;;;;;5034897;28;20049;-76
2022/12/06 12:14:55;;;;;;;2.95;1.88;;;11.80;99.90;;;;;;5068297;28;20053;-77
2022/12/06 12:17:27;;;;;;;4.15;1.92;;;11.90;99.90;;;;;;5034907;28;20049;-76
2022/12/06 12:20:04;;;;;;;4.30;2.83;;;11.80;99.90;;;;;;5034726;28;20052;-77
2022/12/06 12:22:34;;;;;;;7.60;2.25;;;12.00;99.90;;;;;;5051351;28;20049;-77
2022/12/06 12:25:18;;;;;;;3.30;1.90;;;12.20;99.90;;;;;;5051281;28;20052;-77
2022/12/06 12:27:53;;;;;;;4.22;2.10;;;12.30;99.90;;;;;;5034818;28;20095;-77
2022/12/06 12:30:25;;;;;;;8.85;2.33;;;12.50;99.90;;;;;;5051342;28;20186;-77
2022/12/06 12:33:05;;;;;;;4.70;2.25;;;12.60;99.90;;;;;;5068105;28;20097;-77
2022/12/06 12:35:33;;;;;;;6.82;3.22;;;13.00;99.90;;;;;;5035294;28;20216;-77
2022/12/06 12:38:03;;;;;;;4.88;1.90;;;12.60;99.90;;;;;;5068085;28;20560;-77
2022/12/06 12:40:35;;;;;;;4.20;1.60;;;12.70;99.90;;;;;;5034339;28;20087;-77
2022/12/06 12:43:06;;;;;;;4.65;1.77;;;12.80;99.90;;;;;;5034811;28;20076;-77
2022/12/06 12:45:32;;;;;;;2.70;1.90;;;12.60;99.90;;;;;;5051187;28;20048;-76
2022/12/06 12:48:18;;;;;;;2.22;1.55;;;12.70;99.90;;;;;;5018366;28;20049;-76
2022/12/06 12:50:55;;;;;;;5.10;4.60;;;12.80;99.90;;;;;;5051038;28;20056;-77
2022/12/06 12:53:39;;;;;;;5.63;1.80;;;12.90;99.90;;;;;;5034272;28;20421;-76
2022/12/06 12:56:16;;;;;;;4.50;1.65;;;12.70;1.00;;;;;;5034514;28;20405;-77
2022/12/06 12:58:45;;;;;;;2.13;1.40;;;12.30;99.90;;;;;;5036196;28;20071;-76
2022/12/06 13:01:23;;;;;;;3.08;1.30;;;11.90;99.90;;;;;;5037887;28;20049;-76
2022/12/06 13:04:03;;;;;;;3.83;1.67;;;11.70;1.00;;;;;;5071156;28;20379;-76
2022/12/06 13:06:44;;;;;;;4.32;1.50;;;11.20;5.10;;;;;;5054296;28;20048;-76
2022/12/06 13:09:25;;;;;;;1.95;1.58;;;10.70;31.80;;;;;;5054070;28;20487;-76
2022/12/06 13:12:01;;;;;;;4.47;1.80;;;10.40;83.20;;;;;;5054335;28;20106;-76
2022/12/06 13:14:28;;;;;;;2.20;1.60;;;10.10;99.90;;;;;;5037739;28;20048;-76
2022/12/06 13:16:57;;;;;;;3.67;1.48;;;10.00;99.90;;;;;;5037967;28;20127;-76
2022/12/06 13:19:40;;;;;;;3.67;1.60;;;9.80;99.90;;;;;;5038489;28;20045;-77
2022/12/06 13:22:12;;;;;;;3.13;1.50;;;9.70;99.90;;;;;;5041438;28;20052;-76
2022/12/06 13:24:42;;;;;;;5.80;1.60;;;9.60;99.90;;;;;;5025490;28;20092;-76
2022/12/06 13:27:14;;;;;;;2.42;1.55;;;9.60;99.90;;;;;;5041307;28;20036;-75
2022/12/06 13:29:54;;;;;;;2.60;1.55;;;9.60;99.90;;;;;;5041118;28;20117;-76
2022/12/06 13:32:28;;;;;;;3.17;1.77;;;9.40;99.90;;;;;;5041229;28;20498;-76
2022/12/06 13:35:00;;;;;;;2.78;1.55;;;9.30;99.90;;;;;;5041225;28;20044;-77
2022/12/06 13:37:27;;;;;;;;;;;9.30;99.90;;;;;;5058133;28;20080;-77
2022/12/06 13:39:52;;;;;;;2.78;1.67;;;8.90;99.90;;;;;;5057454;28;20011;-75
2022/12/06 13:42:39;;;;;;;3.58;1.90;;;8.80;99.90;;;;;;5057312;28;20489;-75